sensor_id;sensor_type;location;lat;lon;timestamp;pressure;altitude;pressure_sealevel;temperature;humidity
74435;BME280;62867;52.038;29.256;2023-04-03T00:01:43;1017.9;;;8;72.5
74435;BME280;62867;52.038;29.256;2023-04-03T00:06:19;1017.9;;;8;72.6
74435;BME280;62867;52.038;29.256;2023-04-03T00:11:06;1017.9;;;8;72.6
74435;BME280;62867;52.038;29.256;2023-04-03T00:16:33;1018;;;7.9;72.7
74435;BME280;62867;52.038;29.256;2023-04-03T00:21:19;1018;;;7.9;72.2
74435;BME280;62867;52.038;29.256;2023-04-03T00:26:43;1018;;;7.8;72.8
74435;BME280;62867;52.038;29.256;2023-04-03T00:31:19;1018.1;;;7.8;72.8
74435;BME280;62867;52.038;29.256;2023-04-03T00:36:05;1018;;;7.8;72.6
74435;BME280;62867;52.038;29.256;2023-04-03T00:41:33;1018;;;7.8;72.6
74435;BME280;62867;52.038;29.256;2023-04-03T00:46:19;1018;;;7.7;72.4
74435;BME280;62867;52.038;29.256;2023-04-03T00:51:45;1018;;;7.7;72.6
74435;BME280;62867;52.038;29.256;2023-04-03T00:55:55;1018;;;7.6;72.5
74435;BME280;62867;52.038;29.256;2023-04-03T01:00:55;1018.1;;;7.5;72.7
74435;BME280;62867;52.038;29.256;2023-04-03T01:06:34;1018.1;;;7.5;73
74435;BME280;62867;52.038;29.256;2023-04-03T01:11:27;1018.1;;;7.5;72.7
74435;BME280;62867;52.038;29.256;2023-04-03T01:16:50;1018.1;;;7.4;72.6
74435;BME280;62867;52.038;29.256;2023-04-03T01:21:31;1018.1;;;7.3;72.7
74435;BME280;62867;52.038;29.256;2023-04-03T01:26:05;1018.1;;;7.3;72.6
74435;BME280;62867;52.038;29.256;2023-04-03T01:31:43;1018.2;;;7.3;72.4
74435;BME280;62867;52.038;29.256;2023-04-03T01:36:20;1018.2;;;7.2;72.7
74435;BME280;62867;52.038;29.256;2023-04-03T01:41:45;1018.2;;;7.2;72.6
74435;BME280;62867;52.038;29.256;2023-04-03T01:45:55;1018.3;;;7.2;72.7
74435;BME280;62867;52.038;29.256;2023-04-03T01:51:05;1018.3;;;7.1;72.7
74435;BME280;62867;52.038;29.256;2023-04-03T01:56:33;1018.3;;;7;72.4
74435;BME280;62867;52.038;29.256;2023-04-03T02:01:05;1018.3;;;6.9;72.5
74435;BME280;62867;52.038;29.256;2023-04-03T02:06:43;1018.4;;;6.9;72.5
74435;BME280;62867;52.038;29.256;2023-04-03T02:11:19;1018.4;;;6.8;72.7
74435;BME280;62867;52.038;29.256;2023-04-03T02:16:06;1018.4;;;6.7;72.5
74435;BME280;62867;52.038;29.256;2023-04-03T02:21:33;1018.5;;;6.7;72.5
74435;BME280;62867;52.038;29.256;2023-04-03T02:26:19;1018.5;;;6.6;72.4
74435;BME280;62867;52.038;29.256;2023-04-03T02:31:33;1018.5;;;6.6;72.7
74435;BME280;62867;52.038;29.256;2023-04-03T02:36:09;1018.5;;;6.6;73
74435;BME280;62867;52.038;29.256;2023-04-03T02:40:59;1018.5;;;6.6;72.6
74435;BME280;62867;52.038;29.256;2023-04-03T02:46:47;1018.5;;;6.6;72.8
74435;BME280;62867;52.038;29.256;2023-04-03T02:50:55;1018.6;;;6.6;72.8
74435;BME280;62867;52.038;29.256;2023-04-03T02:56:21;1018.6;;;6.5;72.6
74435;BME280;62867;52.038;29.256;2023-04-03T03:01:27;1018.7;;;6.4;72
74435;BME280;62867;52.038;29.256;2023-04-03T03:06:03;1018.7;;;6.4;72.4
74435;BME280;62867;52.038;29.256;2023-04-03T03:11:33;1018.6;;;6.3;72.6
74435;BME280;62867;52.038;29.256;2023-04-03T03:16:19;1018.7;;;6.3;72.2
74435;BME280;62867;52.038;29.256;2023-04-03T03:21:43;1018.7;;;6.3;72
74435;BME280;62867;52.038;29.256;2023-04-03T03:26:29;1018.7;;;6.3;72.1
74435;BME280;62867;52.038;29.256;2023-04-03T03:31:06;1018.7;;;6.2;72
74435;BME280;62867;52.038;29.256;2023-04-03T03:36:43;1018.7;;;6.2;72
74435;BME280;62867;52.038;29.256;2023-04-03T03:40:55;1018.8;;;6.1;71.9
74435;BME280;62867;52.038;29.256;2023-04-03T03:46:25;1018.9;;;6.1;72.1
74435;BME280;62867;52.038;29.256;2023-04-03T03:51:19;1018.9;;;6;72
74435;BME280;62867;52.038;29.256;2023-04-03T03:56:03;1018.9;;;6;71.9
74435;BME280;62867;52.038;29.256;2023-04-03T04:01:43;1019;;;5.9;72.2
74435;BME280;62867;52.038;29.256;2023-04-03T04:06:27;1019;;;5.9;71.8
74435;BME280;62867;52.038;29.256;2023-04-03T04:11:15;1019.1;;;5.8;71.8
74435;BME280;62867;52.038;29.256;2023-04-03T04:16:19;1019.1;;;5.8;71.7
74435;BME280;62867;52.038;29.256;2023-04-03T04:21:13;1019.1;;;5.8;72
74435;BME280;62867;52.038;29.256;2023-04-03T04:26:41;1019.1;;;5.8;71.3
74435;BME280;62867;52.038;29.256;2023-04-03T04:31:03;1019.1;;;5.7;71.5
74435;BME280;62867;52.038;29.256;2023-04-03T04:36:27;1019.2;;;5.7;71.3
74435;BME280;62867;52.038;29.256;2023-04-03T04:40:55;1019.3;;;5.6;71.3
74435;BME280;62867;52.038;29.256;2023-04-03T04:46:27;1019.2;;;5.6;71.3
74435;BME280;62867;52.038;29.256;2023-04-03T04:51:45;1019.2;;;5.5;70.4
74435;BME280;62867;52.038;29.256;2023-04-03T04:56:13;1019.3;;;5.4;70.4
74435;BME280;62867;52.038;29.256;2023-04-03T05:01:27;1019.3;;;5.3;70.5
74435;BME280;62867;52.038;29.256;2023-04-03T05:05:55;1019.3;;;5.3;70.8
74435;BME280;62867;52.038;29.256;2023-04-03T05:10:55;1019.4;;;5.3;70.5
74435;BME280;62867;52.038;29.256;2023-04-03T05:16:43;1019.4;;;5.3;70.9
74435;BME280;62867;52.038;29.256;2023-04-03T05:21:04;1019.4;;;5.3;70.6
74435;BME280;62867;52.038;29.256;2023-04-03T05:26:30;1019.5;;;5.2;70.5
74435;BME280;62867;52.038;29.256;2023-04-03T05:31:19;1019.5;;;5.2;70.5
74435;BME280;62867;52.038;29.256;2023-04-03T05:35:55;1019.5;;;5.2;70.3
74435;BME280;62867;52.038;29.256;2023-04-03T05:41:45;1019.6;;;5.2;70.7
74435;BME280;62867;52.038;29.256;2023-04-03T05:46:04;1019.6;;;5.3;70.6
74435;BME280;62867;52.038;29.256;2023-04-03T05:51:30;1019.7;;;5.2;70
74435;BME280;62867;52.038;29.256;2023-04-03T05:56:06;1019.7;;;5.1;69.8
74435;BME280;62867;52.038;29.256;2023-04-03T06:00:55;1019.8;;;5.1;70.1
74435;BME280;62867;52.038;29.256;2023-04-03T06:06:44;1019.8;;;5.1;69.9
74435;BME280;62867;52.038;29.256;2023-04-03T06:10:55;1019.8;;;5.1;69.9
74435;BME280;62867;52.038;29.256;2023-04-03T06:16:12;1019.9;;;5.1;69.9
74435;BME280;62867;52.038;29.256;2023-04-03T06:21:09;1019.9;;;5.2;69.9
74435;BME280;62867;52.038;29.256;2023-04-03T06:25:55;1019.9;;;5.2;70.1
74435;BME280;62867;52.038;29.256;2023-04-03T06:31:43;1020;;;5.3;70.2
74435;BME280;62867;52.038;29.256;2023-04-03T06:35:56;1020;;;5.4;69.7
74435;BME280;62867;52.038;29.256;2023-04-03T06:41:26;1020.1;;;5.5;69.8
74435;BME280;62867;52.038;29.256;2023-04-03T06:46:21;1020.1;;;5.5;69.6
74435;BME280;62867;52.038;29.256;2023-04-03T06:51:04;1020.1;;;5.6;69.6
74435;BME280;62867;52.038;29.256;2023-04-03T06:56:41;1020.2;;;5.6;69.2
74435;BME280;62867;52.038;29.256;2023-04-03T07:01:04;1020.3;;;5.6;69.1
74435;BME280;62867;52.038;29.256;2023-04-03T07:06:29;1020.3;;;5.5;68.5
74435;BME280;62867;52.038;29.256;2023-04-03T07:11:10;1020.3;;;5.5;69
74435;BME280;62867;52.038;29.256;2023-04-03T07:15:55;1020.4;;;5.5;69.1
74435;BME280;62867;52.038;29.256;2023-04-03T07:21:44;1020.4;;;5.5;69.2
74435;BME280;62867;52.038;29.256;2023-04-03T07:26:13;1020.5;;;5.5;69.2
74435;BME280;62867;52.038;29.256;2023-04-03T07:31:26;1020.5;;;5.5;68.7
74435;BME280;62867;52.038;29.256;2023-04-03T07:35:56;1020.5;;;5.6;69.4
74435;BME280;62867;52.038;29.256;2023-04-03T07:40:56;1020.6;;;5.7;68.8
74435;BME280;62867;52.038;29.256;2023-04-03T07:46:44;1020.6;;;5.7;68.9
74435;BME280;62867;52.038;29.256;2023-04-03T07:51:28;1020.7;;;5.7;68.3
74435;BME280;62867;52.038;29.256;2023-04-03T07:56:06;1020.7;;;5.7;68.9
74435;BME280;62867;52.038;29.256;2023-04-03T08:01:18;1020.7;;;5.7;68
74435;BME280;62867;52.038;29.256;2023-04-03T08:06:42;1020.8;;;5.7;68.4
74435;BME280;62867;52.038;29.256;2023-04-03T08:11:20;1020.8;;;5.6;67.2
74435;BME280;62867;52.038;29.256;2023-04-03T08:15:56;1020.9;;;5.7;67.7
74435;BME280;62867;52.038;29.256;2023-04-03T08:21:44;1021;;;5.7;67.7
74435;BME280;62867;52.038;29.256;2023-04-03T08:26:28;1021;;;5.7;68.3
74435;BME280;62867;52.038;29.256;2023-04-03T08:31:44;1021.1;;;5.8;68.3
74435;BME280;62867;52.038;29.256;2023-04-03T08:36:44;1021.1;;;5.8;67.8
74435;BME280;62867;52.038;29.256;2023-04-03T08:40:59;1021.2;;;5.8;68
74435;BME280;62867;52.038;29.256;2023-04-03T08:46:47;1021.3;;;5.8;68.3
74435;BME280;62867;52.038;29.256;2023-04-03T08:51:26;1021.3;;;5.8;68.3
74435;BME280;62867;52.038;29.256;2023-04-03T08:56:14;1021.3;;;5.8;68.3
74435;BME280;62867;52.038;29.256;2023-04-03T09:00:57;1021.4;;;5.9;68.5
74435;BME280;62867;52.038;29.256;2023-04-03T09:05:57;1021.4;;;5.9;68.5
74435;BME280;62867;52.038;29.256;2023-04-03T09:11:46;1021.4;;;5.9;68.7
74435;BME280;62867;52.038;29.256;2023-04-03T09:16:31;1021.4;;;6;69
74435;BME280;62867;52.038;29.256;2023-04-03T09:21:44;1021.4;;;6.1;69.1
74435;BME280;62867;52.038;29.256;2023-04-03T09:26:07;1021.5;;;6.1;68.3
74435;BME280;62867;52.038;29.256;2023-04-03T09:31:06;1021.6;;;6.1;67.9
74435;BME280;62867;52.038;29.256;2023-04-03T09:36:37;1021.6;;;6.1;68
74435;BME280;62867;52.038;29.256;2023-04-03T09:41:28;1021.6;;;6;68.3
74435;BME280;62867;52.038;29.256;2023-04-03T09:46:44;1021.6;;;6;68.4
74435;BME280;62867;52.038;29.256;2023-04-03T09:51:20;1021.7;;;6;68.3
74435;BME280;62867;52.038;29.256;2023-04-03T09:56:38;1021.7;;;6.1;68.3
74435;BME280;62867;52.038;29.256;2023-04-03T10:01:55;1021.7;;;6.3;68.3
74435;BME280;62867;52.038;29.256;2023-04-03T10:06:29;1021.7;;;6.3;67.9
74435;BME280;62867;52.038;29.256;2023-04-03T10:12:02;1021.8;;;6.3;67.7
74435;BME280;62867;52.038;29.256;2023-04-03T10:16:11;1021.8;;;6.3;67.7
74435;BME280;62867;52.038;29.256;2023-04-03T10:21:10;1021.9;;;6.5;68
74435;BME280;62867;52.038;29.256;2023-04-03T10:26:48;1021.9;;;6.5;67.9
74435;BME280;62867;52.038;29.256;2023-04-03T10:31:31;1021.9;;;6.5;67.6
74435;BME280;62867;52.038;29.256;2023-04-03T10:36:48;1022;;;6.5;67.9
74435;BME280;62867;52.038;29.256;2023-04-03T10:41:21;1022;;;6.5;67.9
74435;BME280;62867;52.038;29.256;2023-04-03T10:45:57;1022;;;6.6;68
74435;BME280;62867;52.038;29.256;2023-04-03T10:51:33;1022.1;;;6.6;67.2
74435;BME280;62867;52.038;29.256;2023-04-03T10:56:31;1022.1;;;6.5;67.6
74435;BME280;62867;52.038;29.256;2023-04-03T11:01:46;1022.1;;;6.4;67.7
74435;BME280;62867;52.038;29.256;2023-04-03T11:06:20;1022.1;;;6.4;67.6
74435;BME280;62867;52.038;29.256;2023-04-03T11:11:32;1022.1;;;6.4;67.2
74435;BME280;62867;52.038;29.256;2023-04-03T11:16:48;1022.1;;;6.3;67.2
74435;BME280;62867;52.038;29.256;2023-04-03T11:21:31;1022.1;;;6.5;68
74435;BME280;62867;52.038;29.256;2023-04-03T11:26:46;1022.1;;;6.6;68
74435;BME280;62867;52.038;29.256;2023-04-03T11:31:24;1022.1;;;6.6;67.9
74435;BME280;62867;52.038;29.256;2023-04-03T11:36:07;1022.2;;;6.5;67.7
74435;BME280;62867;52.038;29.256;2023-04-03T11:41:46;1022.2;;;6.6;67.5
74435;BME280;62867;52.038;29.256;2023-04-03T11:46:48;1022.2;;;6.6;67.7
74435;BME280;62867;52.038;29.256;2023-04-03T11:51:46;1022.2;;;6.5;67.5
74435;BME280;62867;52.038;29.256;2023-04-03T11:55:57;1022.2;;;6.4;67.7
74435;BME280;62867;52.038;29.256;2023-04-03T12:01:47;1022.3;;;6.3;67.6
74435;BME280;62867;52.038;29.256;2023-04-03T12:06:51;1022.3;;;6.3;67.8
74435;BME280;62867;52.038;29.256;2023-04-03T12:11:30;1022.4;;;6.3;67.8
74435;BME280;62867;52.038;29.256;2023-04-03T12:16:48;1022.4;;;6.3;68.1
74435;BME280;62867;52.038;29.256;2023-04-03T12:21:20;1022.4;;;6.3;67.6
74435;BME280;62867;52.038;29.256;2023-04-03T12:26:34;1022.4;;;6.3;68.3
74435;BME280;62867;52.038;29.256;2023-04-03T12:31:22;1022.4;;;6.3;67.8
74435;BME280;62867;52.038;29.256;2023-04-03T12:36:29;1022.5;;;6.3;68
74435;BME280;62867;52.038;29.256;2023-04-03T12:41:48;1022.5;;;6.4;67.7
74435;BME280;62867;52.038;29.256;2023-04-03T12:46:20;1022.5;;;6.4;67.7
74435;BME280;62867;52.038;29.256;2023-04-03T12:51:06;1022.5;;;6.3;67.8
74435;BME280;62867;52.038;29.256;2023-04-03T12:56:21;1022.6;;;6.3;68
74435;BME280;62867;52.038;29.256;2023-04-03T13:01:30;1022.6;;;6.2;67.6
74435;BME280;62867;52.038;29.256;2023-04-03T13:06:46;1022.6;;;6.1;68.4
74435;BME280;62867;52.038;29.256;2023-04-03T13:11:20;1022.7;;;6.1;68.8
74435;BME280;62867;52.038;29.256;2023-04-03T13:16:07;1022.8;;;6.1;68.7
74435;BME280;62867;52.038;29.256;2023-04-03T13:21:11;1022.8;;;6;68.6
74435;BME280;62867;52.038;29.256;2023-04-03T13:26:30;1022.8;;;6;68.3
74435;BME280;62867;52.038;29.256;2023-04-03T13:31:44;1022.8;;;5.8;68.1
74435;BME280;62867;52.038;29.256;2023-04-03T13:36:20;1022.8;;;5.8;68.6
74435;BME280;62867;52.038;29.256;2023-04-03T13:40:56;1022.9;;;5.8;68.6
74435;BME280;62867;52.038;29.256;2023-04-03T13:45:57;1022.9;;;5.7;69
74435;BME280;62867;52.038;29.256;2023-04-03T13:51:32;1023;;;5.7;68.8
74435;BME280;62867;52.038;29.256;2023-04-03T13:56:52;1023;;;5.8;68.9
74435;BME280;62867;52.038;29.256;2023-04-03T14:01:21;1023;;;5.8;68.6
74435;BME280;62867;52.038;29.256;2023-04-03T14:06:40;1023.1;;;5.7;68.7
74435;BME280;62867;52.038;29.256;2023-04-03T14:11:21;1023.2;;;5.7;68
74435;BME280;62867;52.038;29.256;2023-04-03T14:16:19;1023.2;;;5.7;68
74435;BME280;62867;52.038;29.256;2023-04-03T14:21:48;1023.3;;;5.7;67.7
74435;BME280;62867;52.038;29.256;2023-04-03T14:26:20;1023.3;;;5.7;68.2
74435;BME280;62867;52.038;29.256;2023-04-03T14:30:56;1023.3;;;5.6;68.6
74435;BME280;62867;52.038;29.256;2023-04-03T14:36:11;1023.3;;;5.5;69
74435;BME280;62867;52.038;29.256;2023-04-03T14:41:32;1023.4;;;5.5;68.8
74435;BME280;62867;52.038;29.256;2023-04-03T14:46:48;1023.4;;;5.4;68.7
74435;BME280;62867;52.038;29.256;2023-04-03T14:51:06;1023.4;;;5.3;69
74435;BME280;62867;52.038;29.256;2023-04-03T14:56:50;1023.5;;;5.2;69.2
74435;BME280;62867;52.038;29.256;2023-04-03T15:01:10;1023.6;;;5.2;68.8
74435;BME280;62867;52.038;29.256;2023-04-03T15:06:48;1023.6;;;5.1;69.3
74435;BME280;62867;52.038;29.256;2023-04-03T15:11:20;1023.6;;;5.1;69.1
74435;BME280;62867;52.038;29.256;2023-04-03T15:16:34;1023.6;;;5;69.1
74435;BME280;62867;52.038;29.256;2023-04-03T15:21:06;1023.7;;;4.9;69.4
74435;BME280;62867;52.038;29.256;2023-04-03T15:26:22;1023.7;;;4.9;69.9
74435;BME280;62867;52.038;29.256;2023-04-03T15:31:06;1023.7;;;4.9;70.3
74435;BME280;62867;52.038;29.256;2023-04-03T15:36:30;1023.8;;;4.8;69.8
74435;BME280;62867;52.038;29.256;2023-04-03T15:41:51;1023.8;;;4.8;69.9
74435;BME280;62867;52.038;29.256;2023-04-03T15:46:19;1023.8;;;4.8;69.8
74435;BME280;62867;52.038;29.256;2023-04-03T15:51:30;1023.9;;;4.8;69.9
74435;BME280;62867;52.038;29.256;2023-04-03T15:56:10;1023.9;;;4.7;70.1
74435;BME280;62867;52.038;29.256;2023-04-03T16:01:32;1023.9;;;4.7;70.3
74435;BME280;62867;52.038;29.256;2023-04-03T16:06:48;1023.9;;;4.7;70.2
74435;BME280;62867;52.038;29.256;2023-04-03T16:11:16;1024;;;4.6;70.2
74435;BME280;62867;52.038;29.256;2023-04-03T16:16:32;1024;;;4.5;70.3
74435;BME280;62867;52.038;29.256;2023-04-03T16:21:20;1024;;;4.5;70.6
74435;BME280;62867;52.038;29.256;2023-04-03T16:26:24;1024;;;4.5;70.8
74435;BME280;62867;52.038;29.256;2023-04-03T16:31:50;1024.1;;;4.5;71
74435;BME280;62867;52.038;29.256;2023-04-03T16:36:32;1024.1;;;4.5;71.2
74435;BME280;62867;52.038;29.256;2023-04-03T16:41:34;1024.1;;;4.4;70.9
74435;BME280;62867;52.038;29.256;2023-04-03T16:46:20;1024.1;;;4.4;70.8
74435;BME280;62867;52.038;29.256;2023-04-03T16:51:34;1024.1;;;4.4;70.8
74435;BME280;62867;52.038;29.256;2023-04-03T16:56:50;1024.2;;;4.4;70.7
74435;BME280;62867;52.038;29.256;2023-04-03T17:01:08;1024.2;;;4.4;70.6
74435;BME280;62867;52.038;29.256;2023-04-03T17:06:34;1024.2;;;4.3;70.8
74435;BME280;62867;52.038;29.256;2023-04-03T17:10:56;1024.3;;;4.3;71
74435;BME280;62867;52.038;29.256;2023-04-03T17:16:35;1024.3;;;4.3;71.2
74435;BME280;62867;52.038;29.256;2023-04-03T17:21:24;1024.4;;;4.3;71.1
74435;BME280;62867;52.038;29.256;2023-04-03T17:26:06;1024.4;;;4.2;71.2
74435;BME280;62867;52.038;29.256;2023-04-03T17:31:50;1024.5;;;4.2;71.1
74435;BME280;62867;52.038;29.256;2023-04-03T17:36:20;1024.6;;;4.3;71
74435;BME280;62867;52.038;29.256;2023-04-03T17:41:34;1024.6;;;4.3;71.3
74435;BME280;62867;52.038;29.256;2023-04-03T17:46:48;1024.6;;;4.3;71
74435;BME280;62867;52.038;29.256;2023-04-03T17:51:19;1024.6;;;4.2;70.8
74435;BME280;62867;52.038;29.256;2023-04-03T17:56:50;1024.6;;;4.2;71
74435;BME280;62867;52.038;29.256;2023-04-03T18:01:07;1024.6;;;4.2;71.1
74435;BME280;62867;52.038;29.256;2023-04-03T18:06:36;1024.6;;;4.2;71.1
74435;BME280;62867;52.038;29.256;2023-04-03T18:11:48;1024.6;;;4.2;71.2
74435;BME280;62867;52.038;29.256;2023-04-03T18:16:16;1024.5;;;4.2;71.4
74435;BME280;62867;52.038;29.256;2023-04-03T18:21:48;1024.5;;;4.2;71
74435;BME280;62867;52.038;29.256;2023-04-03T18:25:56;1024.5;;;4.1;70.9
74435;BME280;62867;52.038;29.256;2023-04-03T18:30:56;1024.5;;;4.1;71.3
74435;BME280;62867;52.038;29.256;2023-04-03T18:36:48;1024.6;;;4.2;71.3
74435;BME280;62867;52.038;29.256;2023-04-03T18:41:18;1024.5;;;4.2;71.5
74435;BME280;62867;52.038;29.256;2023-04-03T18:46:50;1024.5;;;4.2;71.3
74435;BME280;62867;52.038;29.256;2023-04-03T18:50:56;1024.5;;;4.2;71.3
74435;BME280;62867;52.038;29.256;2023-04-03T18:56:34;1024.5;;;4.2;71.2
74435;BME280;62867;52.038;29.256;2023-04-03T19:01:38;1024.5;;;4.2;71
74435;BME280;62867;52.038;29.256;2023-04-03T19:05:56;1024.5;;;4.1;71
74435;BME280;62867;52.038;29.256;2023-04-03T19:11:50;1024.5;;;4.1;71
74435;BME280;62867;52.038;29.256;2023-04-03T19:15:56;1024.5;;;4;71
74435;BME280;62867;52.038;29.256;2023-04-03T19:21:34;1024.5;;;4;71.2
74435;BME280;62867;52.038;29.256;2023-04-03T19:26:50;1024.5;;;4;70.9
74435;BME280;62867;52.038;29.256;2023-04-03T19:31:09;1024.5;;;4;71.2
74435;BME280;62867;52.038;29.256;2023-04-03T19:36:50;1024.5;;;4;70.9
74435;BME280;62867;52.038;29.256;2023-04-03T19:41:20;1024.5;;;4.1;71.3
74435;BME280;62867;52.038;29.256;2023-04-03T19:46:34;1024.5;;;4.1;71.1
74435;BME280;62867;52.038;29.256;2023-04-03T19:51:48;1024.5;;;4.1;71
74435;BME280;62867;52.038;29.256;2023-04-03T19:55:56;1024.5;;;4.1;70.9
74435;BME280;62867;52.038;29.256;2023-04-03T20:00:58;1024.5;;;4.1;70.6
74435;BME280;62867;52.038;29.256;2023-04-03T20:06:06;1024.5;;;4;70.6
74435;BME280;62867;52.038;29.256;2023-04-03T20:11:34;1024.5;;;4;70.4
74435;BME280;62867;52.038;29.256;2023-04-03T20:16:50;1024.5;;;3.9;70.5
74435;BME280;62867;52.038;29.256;2023-04-03T20:21:50;1024.4;;;3.9;70.6
74435;BME280;62867;52.038;29.256;2023-04-03T20:26:50;1024.4;;;3.9;71.2
74435;BME280;62867;52.038;29.256;2023-04-03T20:31:06;1024.4;;;3.9;70.9
74435;BME280;62867;52.038;29.256;2023-04-03T20:36:34;1024.5;;;3.9;70.9
74435;BME280;62867;52.038;29.256;2023-04-03T20:41:50;1024.4;;;3.9;71.1
74435;BME280;62867;52.038;29.256;2023-04-03T20:46:18;1024.4;;;3.9;70.6
74435;BME280;62867;52.038;29.256;2023-04-03T20:51:50;1024.5;;;3.8;71
74435;BME280;62867;52.038;29.256;2023-04-03T20:56:20;1024.6;;;3.9;71.2
74435;BME280;62867;52.038;29.256;2023-04-03T21:01:34;1024.7;;;3.9;71.1
74435;BME280;62867;52.038;29.256;2023-04-03T21:20:56;1024.9;;;3.7;70.5
74435;BME280;62867;52.038;29.256;2023-04-03T21:26:35;1024.8;;;3.7;71
74435;BME280;62867;52.038;29.256;2023-04-03T21:30:56;1024.9;;;3.8;71
74435;BME280;62867;52.038;29.256;2023-04-03T21:36:38;1024.9;;;3.8;70.5
74435;BME280;62867;52.038;29.256;2023-04-03T21:41:50;1024.9;;;3.8;70.4
74435;BME280;62867;52.038;29.256;2023-04-03T21:46:20;1024.8;;;3.8;70.6
74435;BME280;62867;52.038;29.256;2023-04-03T21:51:34;1024.8;;;3.8;70.6
74435;BME280;62867;52.038;29.256;2023-04-03T21:56:10;1024.7;;;3.8;70.6
74435;BME280;62867;52.038;29.256;2023-04-03T22:01:18;1024.7;;;3.7;70.1
74435;BME280;62867;52.038;29.256;2023-04-03T22:06:50;1024.8;;;3.7;70
74435;BME280;62867;52.038;29.256;2023-04-03T22:11:06;1024.8;;;3.6;70
74435;BME280;62867;52.038;29.256;2023-04-03T22:16:32;1024.7;;;3.5;70.4
74435;BME280;62867;52.038;29.256;2023-04-03T22:21:34;1024.7;;;3.6;70.4
74435;BME280;62867;52.038;29.256;2023-04-03T22:26:18;1024.9;;;3.6;70
74435;BME280;62867;52.038;29.256;2023-04-03T22:31:50;1025.1;;;3.6;70.1
74435;BME280;62867;52.038;29.256;2023-04-03T22:36:06;1025.1;;;3.6;70.4
74435;BME280;62867;52.038;29.256;2023-04-03T22:41:32;1024.9;;;3.6;70.1
74435;BME280;62867;52.038;29.256;2023-04-03T22:46:07;1024.8;;;3.5;70.2
74435;BME280;62867;52.038;29.256;2023-04-03T22:50:56;1024.7;;;3.5;70
74435;BME280;62867;52.038;29.256;2023-04-03T22:56:50;1024.7;;;3.5;69.8
74435;BME280;62867;52.038;29.256;2023-04-03T23:01:20;1024.7;;;3.5;69.6
74435;BME280;62867;52.038;29.256;2023-04-03T23:06:32;1024.7;;;3.5;69.9
74435;BME280;62867;52.038;29.256;2023-04-03T23:11:06;1024.6;;;3.4;69.6
74435;BME280;62867;52.038;29.256;2023-04-03T23:16:08;1024.6;;;3.4;69.9
74435;BME280;62867;52.038;29.256;2023-04-03T23:21:48;1024.5;;;3.5;70
74435;BME280;62867;52.038;29.256;2023-04-03T23:26:46;1024.4;;;3.5;69.9
74435;BME280;62867;52.038;29.256;2023-04-03T23:31:30;1024.3;;;3.5;69.8
74435;BME280;62867;52.038;29.256;2023-04-03T23:35:56;1024.2;;;3.6;69.9
74435;BME280;62867;52.038;29.256;2023-04-03T23:41:30;1024.3;;;3.6;69.4
74435;BME280;62867;52.038;29.256;2023-04-03T23:46:44;1024.3;;;3.6;69.7
74435;BME280;62867;52.038;29.256;2023-04-03T23:50:56;1024.4;;;3.6;68.9
74435;BME280;62867;52.038;29.256;2023-04-03T23:56:28;1024.5;;;3.5;68.6
